Terminal Aerodrome Forecast
Issued by NWS

Home | Current Version | Previous Version | Graphics & Text | Print | Product List | Glossary Off
Versions: 1 2 3 4 5 6 7 8 9 10 11 12 13

000
FTUS43 KUNR 172332
TAFGCC
TAF
KGCC 172332Z 1800/1824 23007KT P6SM SCT200
     FM180300 22009KT P6SM SCT200
     FM180600 23013G21KT P6SM SCT200
     FM180800 26013G21KT P6SM SKC
     FM181000 29011KT P6SM SKC=

USA.gov is the U.S. government's official web portal to all federal, state and local government web resources and services.